MDT,Max TemperatureF,Mean TemperatureF,Min TemperatureF,Max Dew PointF,MeanDew PointF,Min DewpointF,Max Humidity, Mean Humidity, Min Humidity, Max Sea Level PressureIn, Mean Sea Level PressureIn, Min Sea Level PressureIn, Max VisibilityMiles, Mean VisibilityMiles, Min VisibilityMiles, Max Wind SpeedMPH, Mean Wind SpeedMPH, Max Gust SpeedMPH,PrecipitationIn, CloudCover, Events, WindDirDegrees
2013-10-1,78,63,47,46,38,28,77,48,19,30.01,29.92,29.75,10,10,10,18,8,24,0.00,0,,75
2013-10-2,85,65,45,57,47,40,93,60,26,29.91,29.84,29.77,10,10,8,17,5,25,0.00,0,,56
2013-10-3,55,53,50,54,49,42,100,81,61,29.82,29.77,29.70,10,4,0,16,11,22,0.05,7,Fog-Rain,26
2013-10-4,53,45,36,52,40,28,100,81,62,30.11,29.87,29.67,10,7,1,36,22,46,0.09,6,Rain,327
2013-10-5,52,44,35,28,26,22,75,55,34,30.16,30.11,30.06,10,10,10,39,23,48,0.00,4,,311
2013-10-6,69,53,37,37,32,25,76,51,26,30.18,30.14,30.10,10,10,10,31,15,40,0.00,0,,320
2013-10-7,83,59,35,39,33,26,89,52,14,30.16,30.02,29.84,10,10,10,21,9,25,0.00,0,,217
2013-10-8,84,61,38,35,33,29,82,49,15,29.83,29.74,29.67,10,10,10,20,8,25,0.00,0,,172
2013-10-9,74,57,39,43,38,33,79,54,29,29.88,29.80,29.67,10,10,10,13,6,32,0.00,0,,9
2013-10-10,84,62,39,54,45,37,96,60,24,29.85,29.67,29.47,10,8,2,37,14,47,0.24,1,Rain-Thunderstorm,183
2013-10-11,62,53,44,46,40,37,83,63,42,30.06,29.74,29.46,10,10,9,35,16,48,0.01,2,Rain,278
2013-10-12,60,49,38,38,33,27,79,55,30,30.26,30.20,30.08,10,10,10,15,7,18,0.00,4,,89
2013-10-13,66,52,37,51,39,32,85,59,32,30.33,30.17,29.99,10,10,6,31,17,40,0.06,3,Rain-Thunderstorm,146
2013-10-14,66,53,39,56,47,31,93,82,70,30.07,29.86,29.62,10,10,4,35,20,45,0.21,6,Rain-Thunderstorm,251
2013-10-15,47,39,30,31,30,28,85,69,53,30.27,30.22,30.09,10,10,10,32,17,40,0.00,3,,327
2013-10-16,55,42,28,31,29,26,92,65,38,30.26,30.12,30.01,10,10,10,15,8,17,0.00,0,,273
2013-10-17,52,43,34,35,31,27,76,61,46,30.17,30.10,30.00,10,10,5,22,11,29,0.01,2,Rain-Snow,349
2013-10-18,49,39,29,36,30,22,100,71,42,30.22,30.16,30.13,10,8,2,24,10,30,0.02,6,Snow,321
2013-10-19,65,47,29,31,28,25,85,55,24,30.12,29.98,29.86,10,10,9,18,10,26,0.00,0,,271
2013-10-20,58,45,31,36,32,26,92,62,32,30.14,29.96,29.81,10,10,10,24,11,30,0.00,2,,336
2013-10-21,60,45,30,37,32,27,92,62,32,30.18,30.10,30.04,10,10,10,28,10,33,T,3,Rain,282
2013-10-22,67,54,40,38,36,35,85,59,32,30.12,30.08,30.04,10,10,7,29,12,37,0.00,2,,311
2013-10-23,69,51,33,39,34,31,92,59,26,30.26,30.13,30.07,10,10,5,21,9,28,0.00,0,,20
2013-10-24,52,40,28,37,33,26,92,74,56,30.41,30.35,30.27,10,10,6,21,9,28,0.00,2,,168
2013-10-25,64,49,34,39,35,30,89,64,39,30.34,30.20,30.06,10,9,2,21,10,30,0.00,0,,182
2013-10-26,63,51,38,38,33,30,85,58,30,30.35,30.23,30.11,10,10,10,13,7,20,0.00,0,,342
2013-10-27,77,57,36,38,31,22,89,51,13,30.08,29.90,29.79,10,10,9,20,9,24,0.00,0,,235
2013-10-28,51,43,34,37,34,29,100,74,48,30.15,30.06,29.85,10,8,2,26,15,33,0.02,6,Rain,70
2013-10-29,39,36,33,37,34,32,100,93,85,30.12,30.06,30.00,10,6,2,21,9,22,T,8,,41
2013-10-30,59,46,33,38,34,29,100,67,33,30.04,29.91,29.79,10,6,0,17,6,21,0.00,5,Fog,98
2013-10-31,61,48,34,31,28,24,82,54,25,29.80,29.76,29.69,10,10,2,32,15,41,0.00,1,,298